Time;durP1;ratioP1;P1;durP2;ratioP2;P2;SDS_P1;SDS_P2;PMS_P1;PMS_P2;Temp;Humidity;BMP_temperature;BMP_pressure;BME280_temperature;BME280_humidity;BME280_pressure;Samples;Min_cycle;Max_cycle;Signal;HPM_P1;HPM_P2
2021/04/23 00:01:27;;;;;;;14.63;6.43;;;22.90;31.50;;;;;;6230307;28;80458;-65
2021/04/23 00:04:28;;;;;;;15.13;7.45;;;22.90;31.20;;;;;;6186692;28;80985;-64
2021/04/23 00:07:28;;;;;;;13.85;7.05;;;22.90;31.20;;;;;;6222719;28;81158;-64
2021/04/23 00:10:29;;;;;;;16.23;7.50;;;22.90;31.00;;;;;;6224917;28;82992;-64
2021/04/23 00:13:29;;;;;;;19.42;8.77;;;22.90;31.10;;;;;;6227836;28;80706;-64
2021/04/23 00:16:30;;;;;;;16.05;7.35;;;22.90;30.90;;;;;;6224156;28;80852;-65
2021/04/23 00:19:30;;;;;;;16.40;7.32;;;22.80;31.10;;;;;;6229070;28;80243;-66
2021/04/23 00:22:31;;;;;;;16.25;7.22;;;22.80;31.60;;;;;;6225047;28;80573;-65
2021/04/23 00:25:31;;;;;;;14.73;6.97;;;22.90;31.10;;;;;;6230803;28;80355;-66
2021/04/23 00:28:32;;;;;;;15.50;7.18;;;22.90;31.40;;;;;;6231234;28;80101;-65
2021/04/23 00:31:32;;;;;;;14.55;8.05;;;22.80;31.00;;;;;;6212913;28;82094;-65
2021/04/23 00:34:33;;;;;;;17.20;7.80;;;22.90;30.80;;;;;;6232494;28;80341;-65
2021/04/23 00:37:33;;;;;;;15.85;7.55;;;22.90;31.10;;;;;;6211315;28;83797;-66
2021/04/23 00:40:34;;;;;;;16.10;7.43;;;22.80;30.80;;;;;;6231333;28;80280;-65
2021/04/23 00:43:34;;;;;;;14.70;6.93;;;22.80;31.20;;;;;;6225871;28;80369;-65
2021/04/23 00:46:35;;;;;;;13.90;6.80;;;22.80;30.80;;;;;;6231790;28;83656;-64
2021/04/23 00:49:35;;;;;;;16.38;7.07;;;22.80;30.80;;;;;;6230592;28;80499;-64
2021/04/23 00:52:36;;;;;;;15.70;7.65;;;22.80;31.00;;;;;;6212737;28;82310;-64
2021/04/23 00:55:36;;;;;;;16.20;7.38;;;22.80;31.00;;;;;;6225701;28;80225;-65
2021/04/23 00:58:37;;;;;;;14.48;7.05;;;22.80;30.70;;;;;;6232611;28;80776;-64
2021/04/23 01:01:37;;;;;;;13.23;7.07;;;22.80;30.70;;;;;;6227236;28;80569;-65
2021/04/23 01:04:38;;;;;;;18.33;7.75;;;22.80;30.70;;;;;;6230709;28;80637;-65
2021/04/23 01:07:38;;;;;;;14.98;7.53;;;22.90;31.00;;;;;;6232913;28;80667;-65
2021/04/23 01:10:39;;;;;;;13.25;7.63;;;22.90;31.00;;;;;;6232305;28;80551;-65
2021/04/23 01:13:40;;;;;;;19.17;7.35;;;22.80;31.00;;;;;;6232795;28;80681;-64
2021/04/23 01:16:40;;;;;;;15.02;7.30;;;22.90;31.30;;;;;;6229346;28;80215;-65
2021/04/23 01:19:41;;;;;;;18.98;7.95;;;22.80;31.30;;;;;;6230232;28;81008;-64
2021/04/23 01:22:41;;;;;;;13.35;7.07;;;22.80;31.20;;;;;;6230048;28;80737;-65
2021/04/23 01:25:42;;;;;;;14.23;6.93;;;22.80;31.60;;;;;;6226909;28;82465;-65
2021/04/23 01:28:42;;;;;;;13.40;7.35;;;22.80;31.40;;;;;;6231558;28;80511;-64
2021/04/23 01:31:43;;;;;;;17.15;6.93;;;22.80;31.60;;;;;;6228961;28;81105;-64
2021/04/23 01:34:43;;;;;;;15.75;7.05;;;22.80;31.60;;;;;;6231695;28;80571;-65
2021/04/23 01:37:44;;;;;;;13.07;7.13;;;22.80;31.50;;;;;;6221802;28;80685;-65
2021/04/23 01:40:44;;;;;;;13.20;7.25;;;22.80;31.20;;;;;;6228788;28;80447;-65
2021/04/23 01:43:45;;;;;;;13.77;6.70;;;22.80;31.70;;;;;;6227618;28;80486;-66
2021/04/23 01:46:45;;;;;;;16.60;8.05;;;22.80;31.60;;;;;;6232460;28;80476;-66
2021/04/23 01:49:46;;;;;;;15.50;7.40;;;22.80;31.60;;;;;;6225050;28;80497;-66
2021/04/23 01:52:46;;;;;;;15.52;7.28;;;22.80;31.60;;;;;;6226066;28;80672;-65
2021/04/23 01:55:47;;;;;;;14.45;6.70;;;22.80;31.60;;;;;;6225810;28;82035;-66
2021/04/23 01:58:47;;;;;;;12.35;6.40;;;22.80;31.60;;;;;;6233082;28;81039;-65
2021/04/23 02:01:48;;;;;;;15.80;7.20;;;22.80;31.50;;;;;;6213632;28;82669;-65
2021/04/23 02:04:48;;;;;;;15.43;7.00;;;22.80;31.50;;;;;;6212630;28;83485;-65
2021/04/23 02:07:49;;;;;;;13.40;7.65;;;22.80;31.70;;;;;;6230410;28;80359;-64
2021/04/23 02:10:49;;;;;;;12.80;6.97;;;22.80;31.40;;;;;;6224616;28;82541;-65
2021/04/23 02:13:50;;;;;;;14.23;7.13;;;22.80;31.10;;;;;;6221764;28;80632;-65
2021/04/23 02:16:50;;;;;;;12.73;6.72;;;22.80;31.10;;;;;;6230291;28;80970;-66
2021/04/23 02:19:51;;;;;;;15.50;7.28;;;22.70;31.50;;;;;;6231231;28;83240;-65
2021/04/23 02:22:51;;;;;;;12.55;6.82;;;22.80;31.60;;;;;;6227982;28;80357;-65
2021/04/23 02:25:52;;;;;;;14.95;7.03;;;22.80;31.30;;;;;;6221151;28;80527;-65
2021/04/23 02:28:52;;;;;;;14.90;7.65;;;22.80;31.40;;;;;;6228136;28;80409;-64
2021/04/23 02:31:53;;;;;;;13.95;6.72;;;22.80;31.30;;;;;;6227096;28;81373;-65
2021/04/23 02:34:54;;;;;;;12.57;6.50;;;22.80;31.60;;;;;;6231565;28;80610;-65
2021/04/23 02:37:54;;;;;;;15.27;7.35;;;22.80;31.50;;;;;;6229570;28;80953;-66
2021/04/23 02:40:55;;;;;;;18.08;6.70;;;22.80;31.20;;;;;;6229731;28;80400;-65
2021/04/23 02:43:55;;;;;;;14.25;7.13;;;22.80;31.60;;;;;;6225617;28;81580;-65
2021/04/23 02:46:56;;;;;;;15.57;7.38;;;22.70;31.50;;;;;;6230886;28;80594;-65
2021/04/23 02:49:56;;;;;;;17.63;7.95;;;22.80;31.60;;;;;;6225481;28;81897;-66
2021/04/23 02:52:57;;;;;;;16.67;7.88;;;22.70;31.30;;;;;;6230505;28;80862;-67
2021/04/23 02:55:57;;;;;;;14.70;7.80;;;22.70;31.60;;;;;;6219326;28;80353;-68
2021/04/23 02:58:58;;;;;;;20.40;8.15;;;22.70;31.50;;;;;;6227093;28;80560;-67
2021/04/23 03:01:58;;;;;;;18.13;8.00;;;22.70;31.50;;;;;;6228067;28;80590;-66
2021/04/23 03:04:59;;;;;;;15.57;8.32;;;22.70;31.50;;;;;;6230062;28;80627;-66
2021/04/23 03:07:59;;;;;;;15.63;7.57;;;22.70;31.80;;;;;;6229061;28;93201;-66
2021/04/23 03:11:00;;;;;;;22.35;8.23;;;22.70;31.50;;;;;;6229858;28;80486;-65
2021/04/23 03:14:00;;;;;;;18.10;7.57;;;22.70;31.30;;;;;;6208749;28;81579;-65
2021/04/23 03:17:01;;;;;;;17.35;7.50;;;22.70;31.60;;;;;;6230341;28;80533;-65
2021/04/23 03:20:01;;;;;;;13.90;7.88;;;22.70;31.20;;;;;;6219857;28;80439;-66
2021/04/23 03:23:02;;;;;;;15.18;7.00;;;22.70;31.00;;;;;;6225574;28;80814;-66
2021/04/23 03:26:02;;;;;;;17.10;7.25;;;22.70;31.70;;;;;;6218167;28;80425;-65
2021/04/23 03:29:03;;;;;;;15.80;7.25;;;22.70;31.80;;;;;;6226203;28;80515;-65
2021/04/23 03:32:03;;;;;;;16.48;7.90;;;22.70;31.60;;;;;;6226043;28;80485;-66
2021/04/23 03:35:04;;;;;;;19.67;8.23;;;22.70;31.50;;;;;;6227012;28;80278;-66
2021/04/23 03:38:04;;;;;;;15.30;7.53;;;22.70;31.60;;;;;;6212520;28;80478;-66
2021/04/23 03:41:05;;;;;;;14.65;7.25;;;22.70;31.50;;;;;;6227034;28;80600;-65
2021/04/23 03:44:05;;;;;;;16.20;8.13;;;22.70;31.50;;;;;;6224577;28;80725;-64
2021/04/23 03:47:06;;;;;;;17.13;7.43;;;22.70;31.50;;;;;;6228409;28;81273;-64
2021/04/23 03:50:06;;;;;;;15.32;7.13;;;22.70;31.50;;;;;;6228982;28;83204;-64
2021/04/23 03:53:07;;;;;;;15.20;7.18;;;22.70;31.70;;;;;;6229694;28;80871;-64
2021/04/23 03:56:07;;;;;;;13.00;6.75;;;22.70;31.50;;;;;;6209214;28;81566;-64
2021/04/23 03:59:08;;;;;;;15.63;8.13;;;22.70;31.50;;;;;;6229529;28;80686;-64
2021/04/23 04:02:08;;;;;;;14.30;7.07;;;22.70;31.30;;;;;;6231996;28;81415;-65
2021/04/23 04:05:09;;;;;;;14.88;7.03;;;22.70;31.70;;;;;;6224392;28;81078;-63
2021/04/23 04:08:09;;;;;;;15.30;7.03;;;22.70;31.70;;;;;;6211295;28;80519;-65
2021/04/23 04:11:10;;;;;;;16.35;6.93;;;22.70;31.80;;;;;;6233966;28;80081;-65
2021/04/23 04:14:10;;;;;;;15.30;5.85;;;22.70;32.10;;;;;;6233996;28;80510;-63
2021/04/23 04:17:11;;;;;;;11.93;6.40;;;22.70;32.30;;;;;;6232181;28;80173;-62
2021/04/23 04:20:11;;;;;;;12.35;5.07;;;22.70;32.60;;;;;;6231760;28;80404;-65
2021/04/23 04:23:15;;;;;;;16.77;6.03;;;22.70;33.30;;;;;;6229146;28;80236;-65
2021/04/23 04:26:16;;;;;;;15.30;6.90;;;22.70;32.80;;;;;;6234949;28;80700;-65
2021/04/23 04:29:18;;;;;;;12.38;6.53;;;22.70;33.60;;;;;;6204653;28;80208;-66
2021/04/23 04:32:18;;;;;;;11.38;5.43;;;22.80;33.40;;;;;;6213912;28;84415;-63
2021/04/23 04:35:19;;;;;;;12.82;5.63;;;22.70;33.80;;;;;;6221001;28;80312;-66
2021/04/23 04:38:19;;;;;;;9.60;5.38;;;22.80;33.40;;;;;;6230851;28;80329;-64
2021/04/23 04:41:20;;;;;;;12.48;5.65;;;22.70;33.40;;;;;;6229206;28;80378;-65
2021/04/23 04:44:20;;;;;;;11.15;5.32;;;22.80;33.50;;;;;;6223010;28;81293;-65
2021/04/23 04:47:20;;;;;;;11.82;5.50;;;22.80;33.60;;;;;;6204853;28;80700;-65
2021/04/23 04:50:24;;;;;;;12.57;5.32;;;22.80;33.70;;;;;;6233997;28;80361;-63
2021/04/23 04:53:25;;;;;;;11.90;5.45;;;22.80;33.60;;;;;;6230465;28;80687;-62
2021/04/23 04:56:25;;;;;;;12.20;5.85;;;22.80;33.70;;;;;;6222106;28;80799;-65
2021/04/23 04:59:26;;;;;;;12.00;5.38;;;22.80;33.30;;;;;;6229541;28;80547;-65
2021/04/23 05:02:26;;;;;;;12.15;5.85;;;22.80;33.30;;;;;;6210551;28;80747;-65
2021/04/23 05:05:27;;;;;;;9.43;5.20;;;22.80;33.70;;;;;;6228676;28;81085;-64
2021/04/23 05:08:27;;;;;;;10.77;5.72;;;22.80;33.10;;;;;;6231573;28;80508;-64
2021/04/23 05:11:28;;;;;;;10.23;5.63;;;22.80;33.40;;;;;;6238184;27;81446;-64
2021/04/23 05:14:28;;;;;;;13.95;6.03;;;22.80;35.20;;;;;;6233909;28;80462;-65
2021/04/23 05:17:29;;;;;;;12.38;5.53;;;22.80;34.70;;;;;;6236232;28;80384;-64
2021/04/23 05:20:30;;;;;;;13.13;6.10;;;22.90;34.70;;;;;;6241464;28;80388;-65
2021/04/23 05:23:30;;;;;;;9.80;4.88;;;22.90;35.40;;;;;;6227962;28;81634;-63
2021/04/23 05:26:31;;;;;;;8.55;4.82;;;22.90;35.00;;;;;;6226889;28;80747;-64
2021/04/23 05:29:31;;;;;;;11.65;5.78;;;22.90;34.90;;;;;;6229693;28;81743;-63
2021/04/23 05:32:32;;;;;;;11.43;5.55;;;22.90;35.10;;;;;;6230297;28;80232;-62
2021/04/23 05:35:33;;;;;;;10.98;5.82;;;23.00;34.90;;;;;;6235978;28;81209;-62
2021/04/23 05:38:33;;;;;;;10.02;5.22;;;23.00;35.20;;;;;;6230971;28;80413;-62
2021/04/23 05:41:34;;;;;;;9.20;4.50;;;23.00;34.90;;;;;;6225560;28;81422;-63
2021/04/23 05:44:34;;;;;;;13.40;4.90;;;23.00;35.10;;;;;;6229787;28;81770;-64
2021/04/23 05:47:35;;;;;;;9.57;4.82;;;23.00;35.70;;;;;;6229167;28;80456;-64
2021/04/23 05:50:35;;;;;;;15.38;6.10;;;23.00;34.80;;;;;;6228188;28;89447;-64
2021/04/23 05:53:36;;;;;;;12.45;4.70;;;23.00;34.30;;;;;;6232043;28;81109;-63
2021/04/23 05:56:36;;;;;;;15.15;4.90;;;22.90;33.60;;;;;;6212742;28;83219;-63
2021/04/23 05:59:37;;;;;;;11.50;4.80;;;22.90;33.80;;;;;;6229954;28;82910;-63
2021/04/23 06:02:37;;;;;;;8.07;4.57;;;22.90;33.90;;;;;;6228267;28;80339;-63
2021/04/23 06:05:38;;;;;;;8.40;5.05;;;22.90;34.00;;;;;;6230916;28;81293;-63
2021/04/23 06:08:38;;;;;;;9.07;4.68;;;22.90;34.00;;;;;;6228690;28;80728;-61
2021/04/23 06:11:40;;;;;;;10.80;4.75;;;22.90;33.80;;;;;;6232700;28;80638;-62
2021/04/23 06:14:40;;;;;;;8.48;4.50;;;22.90;33.70;;;;;;6235380;28;80561;-62
2021/04/23 06:17:41;;;;;;;11.80;4.85;;;22.90;33.50;;;;;;6223507;28;82963;-61
2021/04/23 06:20:42;;;;;;;13.20;4.80;;;22.90;33.10;;;;;;6226572;28;89584;-61
2021/04/23 06:23:42;;;;;;;13.05;4.72;;;23.00;34.10;;;;;;6225433;28;80760;-61
2021/04/23 06:26:43;;;;;;;9.75;4.63;;;22.90;33.40;;;;;;6225556;28;80484;-60
2021/04/23 06:29:43;;;;;;;9.27;4.13;;;22.90;33.20;;;;;;6225367;28;80408;-61
2021/04/23 06:32:44;;;;;;;9.88;4.45;;;22.90;32.90;;;;;;6221012;28;82204;-61
2021/04/23 06:35:45;;;;;;;9.32;4.53;;;22.90;33.20;;;;;;6231935;28;80291;-62
2021/04/23 06:38:45;;;;;;;16.40;5.07;;;22.90;33.50;;;;;;6230008;28;80486;-63
2021/04/23 06:41:46;;;;;;;8.65;4.13;;;22.90;33.50;;;;;;6209981;28;80989;-63
2021/04/23 06:44:47;;;;;;;10.65;4.50;;;22.90;33.40;;;;;;6226723;28;80455;-62
2021/04/23 06:47:47;;;;;;;13.48;4.68;;;22.90;33.70;;;;;;6236900;28;81489;-62
2021/04/23 06:50:48;;;;;;;10.57;5.22;;;22.90;35.50;;;;;;6225718;28;80562;-64
2021/04/23 06:53:48;;;;;;;13.05;6.10;;;22.90;34.30;;;;;;6230779;28;81107;-63
2021/04/23 06:56:48;;;;;;;13.35;5.88;;;22.90;34.10;;;;;;6230088;28;80499;-64
2021/04/23 06:59:49;;;;;;;15.80;5.20;;;22.90;33.20;;;;;;6230453;28;81019;-64
2021/04/23 07:02:50;;;;;;;10.40;5.22;;;22.90;33.00;;;;;;6227200;28;80888;-64
2021/04/23 07:05:50;;;;;;;11.45;5.10;;;22.90;33.00;;;;;;6197097;28;80451;-64
2021/04/23 07:08:51;;;;;;;12.15;5.65;;;22.90;33.30;;;;;;6220451;28;81746;-63
2021/04/23 07:11:51;;;;;;;14.90;5.93;;;22.90;32.90;;;;;;6220885;28;80458;-63
2021/04/23 07:14:52;;;;;;;16.38;5.50;;;22.90;32.80;;;;;;6229068;28;80334;-63
2021/04/23 07:17:52;;;;;;;12.43;5.25;;;22.90;32.20;;;;;;6227927;28;83992;-64
2021/04/23 07:20:53;;;;;;;12.95;4.95;;;22.90;31.90;;;;;;6230632;28;81418;-64
2021/04/23 07:23:53;;;;;;;13.73;5.55;;;22.90;32.50;;;;;;6211308;28;83384;-64
2021/04/23 07:26:54;;;;;;;12.93;4.97;;;22.90;32.20;;;;;;6227937;28;80511;-64
2021/04/23 07:29:55;;;;;;;11.52;5.00;;;22.90;32.10;;;;;;6223061;28;81934;-63
2021/04/23 07:32:55;;;;;;;14.90;6.45;;;22.90;32.40;;;;;;6210277;28;81940;-64
2021/04/23 07:35:56;;;;;;;12.20;5.30;;;22.90;31.60;;;;;;6228148;28;81311;-64
2021/04/23 07:38:56;;;;;;;12.05;5.57;;;22.90;32.00;;;;;;6230191;28;80409;-63
2021/04/23 07:41:57;;;;;;;11.45;5.88;;;22.90;31.70;;;;;;6225982;28;81427;-63
2021/04/23 07:44:57;;;;;;;11.73;4.95;;;22.90;31.30;;;;;;6231179;28;86049;-63
2021/04/23 07:47:58;;;;;;;17.10;6.00;;;22.90;31.30;;;;;;6233078;28;81112;-62
2021/04/23 07:50:58;;;;;;;10.30;5.05;;;22.90;31.30;;;;;;6216144;28;81041;-64
2021/04/23 07:53:59;;;;;;;16.58;6.03;;;22.90;31.10;;;;;;6229844;28;82788;-63
2021/04/23 07:56:59;;;;;;;15.32;5.90;;;22.90;31.60;;;;;;6234052;28;80123;-64
2021/04/23 08:00:00;;;;;;;15.85;6.13;;;22.90;32.00;;;;;;6231745;28;81527;-62
2021/04/23 08:03:00;;;;;;;13.27;7.10;;;22.90;31.60;;;;;;6235441;28;81495;-60
2021/04/23 08:06:01;;;;;;;14.13;6.65;;;22.90;31.50;;;;;;6233801;28;80638;-63
2021/04/23 08:09:01;;;;;;;9.55;6.00;;;22.90;30.90;;;;;;6232077;28;81131;-64
2021/04/23 08:12:02;;;;;;;12.25;5.70;;;22.90;30.30;;;;;;6240013;27;80897;-63
2021/04/23 08:15:03;;;;;;;17.08;6.47;;;22.90;30.50;;;;;;6227274;28;83326;-63
2021/04/23 08:18:03;;;;;;;15.13;7.50;;;22.90;30.10;;;;;;6234499;28;80747;-61
2021/04/23 08:21:04;;;;;;;13.75;7.63;;;22.80;30.80;;;;;;6234257;28;81366;-62
2021/04/23 08:24:04;;;;;;;13.65;7.47;;;22.80;31.90;;;;;;6230144;28;82064;-64
2021/04/23 08:27:05;;;;;;;15.35;6.30;;;22.80;32.00;;;;;;6226909;28;80443;-63
2021/04/23 08:30:05;;;;;;;13.50;6.72;;;22.80;33.30;;;;;;6226294;28;80395;-62
2021/04/23 08:33:06;;;;;;;11.52;6.95;;;22.80;34.60;;;;;;6237879;28;80346;-64
2021/04/23 08:36:07;;;;;;;15.85;6.45;;;22.80;34.30;;;;;;6195095;28;80946;-62
2021/04/23 08:39:07;;;;;;;13.15;5.72;;;22.70;34.20;;;;;;6233193;28;81689;-64
2021/04/23 08:42:08;;;;;;;12.18;6.20;;;22.80;36.00;;;;;;6228581;28;80549;-63
2021/04/23 08:45:08;;;;;;;17.23;6.60;;;22.80;37.30;;;;;;6230638;28;80545;-63
2021/04/23 08:48:09;;;;;;;9.48;6.00;;;22.80;38.00;;;;;;6234258;28;80733;-63
2021/04/23 08:51:09;;;;;;;15.23;6.15;;;22.80;38.00;;;;;;6227679;28;80274;-63
2021/04/23 08:54:10;;;;;;;14.52;6.57;;;22.80;38.50;;;;;;6228233;28;83869;-63
2021/04/23 08:57:10;;;;;;;12.40;6.20;;;22.80;39.20;;;;;;6232546;28;81206;-63
2021/04/23 09:00:11;;;;;;;8.48;5.22;;;22.80;39.20;;;;;;6227015;28;80833;-63
2021/04/23 09:03:12;;;;;;;15.18;6.53;;;22.80;39.70;;;;;;6235535;28;80720;-63
2021/04/23 09:06:12;;;;;;;12.02;5.15;;;22.80;39.40;;;;;;6229790;28;81156;-63
2021/04/23 09:09:13;;;;;;;12.57;6.55;;;22.90;38.80;;;;;;6231300;28;80722;-64
2021/04/23 09:12:14;;;;;;;9.52;5.57;;;22.90;38.80;;;;;;6200446;28;80409;-63
2021/04/23 09:15:14;;;;;;;15.60;5.50;;;22.80;39.00;;;;;;6224180;28;82521;-63
2021/04/23 09:18:15;;;;;;;11.68;5.20;;;22.80;39.00;;;;;;6233842;28;80538;-64
2021/04/23 09:21:15;;;;;;;12.52;5.70;;;22.90;39.30;;;;;;6240216;28;80827;-63
2021/04/23 09:24:16;;;;;;;12.30;5.28;;;22.80;39.80;;;;;;6232155;28;80391;-63
2021/04/23 09:27:16;;;;;;;11.48;5.05;;;22.80;39.70;;;;;;6232969;28;81112;-63
2021/04/23 09:30:17;;;;;;;9.57;5.75;;;22.90;40.50;;;;;;6228666;28;82949;-64
2021/04/23 09:33:17;;;;;;;10.90;5.50;;;22.90;39.60;;;;;;6231453;28;82876;-64
2021/04/23 09:36:18;;;;;;;9.57;4.55;;;22.90;39.50;;;;;;6235042;28;80485;-64
2021/04/23 09:39:19;;;;;;;9.38;5.65;;;22.90;40.20;;;;;;6210680;27;80351;-64
2021/04/23 09:42:19;;;;;;;9.43;5.25;;;22.90;39.90;;;;;;6234018;28;80439;-64
2021/04/23 09:45:20;;;;;;;9.50;5.28;;;22.80;39.60;;;;;;6234789;28;80828;-63
2021/04/23 09:48:20;;;;;;;10.38;5.22;;;22.80;39.70;;;;;;6235008;28;80458;-64
2021/04/23 09:51:21;;;;;;;11.43;5.32;;;22.80;39.50;;;;;;6230975;28;89066;-64
2021/04/23 09:54:22;;;;;;;8.23;4.75;;;22.80;39.70;;;;;;6225986;28;80327;-64
2021/04/23 09:57:22;;;;;;;8.98;4.32;;;22.90;39.70;;;;;;6230168;28;81252;-64
2021/04/23 10:00:25;;;;;;;8.90;5.03;;;22.90;39.70;;;;;;6209835;28;83801;-64
2021/04/23 10:03:25;;;;;;;11.93;5.05;;;22.90;39.50;;;;;;6230532;28;80662;-63
2021/04/23 10:06:32;;;;;;;11.15;5.13;;;22.90;39.20;;;;;;6223235;28;81436;-64
2021/04/23 10:09:33;;;;;;;8.55;4.65;;;23.00;39.60;;;;;;6224744;28;85540;-64
2021/04/23 10:12:33;;;;;;;8.18;3.88;;;22.90;39.40;;;;;;6231438;28;80686;-63
2021/04/23 10:15:34;;;;;;;7.65;4.28;;;22.90;39.50;;;;;;6223742;28;80486;-63
2021/04/23 10:18:36;;;;;;;5.50;3.92;;;22.90;39.20;;;;;;6237978;28;81036;-64
2021/04/23 10:21:36;;;;;;;6.93;4.00;;;22.90;39.30;;;;;;6227638;28;80404;-63
2021/04/23 10:24:37;;;;;;;6.85;4.20;;;22.90;39.00;;;;;;6236208;28;80866;-63
2021/04/23 10:27:40;;;;;;;9.50;4.45;;;22.90;39.20;;;;;;6227738;28;80838;-67
2021/04/23 10:30:41;;;;;;;6.22;3.92;;;23.00;38.90;;;;;;6208670;28;82146;-64
2021/04/23 10:33:41;;;;;;;8.25;3.80;;;23.00;38.60;;;;;;6207884;28;83321;-65
2021/04/23 10:36:42;;;;;;;6.57;4.10;;;23.00;38.60;;;;;;6211216;28;80846;-65
2021/04/23 10:39:42;;;;;;;5.35;3.33;;;23.00;38.60;;;;;;6211522;28;84159;-64
2021/04/23 10:42:43;;;;;;;6.65;3.90;;;23.00;38.90;;;;;;6227522;28;80566;-63
2021/04/23 10:45:46;;;;;;;7.13;3.92;;;23.00;39.40;;;;;;6230979;28;80681;-65
2021/04/23 10:48:48;;;;;;;8.80;4.10;;;22.90;39.50;;;;;;6238962;28;81537;-64
2021/04/23 10:51:48;;;;;;;5.60;3.72;;;22.90;39.60;;;;;;6206172;28;82021;-64
2021/04/23 10:54:49;;;;;;;8.80;3.60;;;22.90;39.30;;;;;;6211709;28;81681;-64
2021/04/23 10:57:49;;;;;;;5.35;3.42;;;22.90;39.20;;;;;;6229115;28;80573;-63
2021/04/23 11:00:50;;;;;;;5.90;3.15;;;22.90;39.70;;;;;;6233103;28;80257;-64
2021/04/23 11:03:50;;;;;;;4.85;3.33;;;22.90;38.90;;;;;;6231457;28;80836;-62
2021/04/23 11:06:51;;;;;;;9.43;3.28;;;22.90;38.80;;;;;;6231762;28;81560;-64
2021/04/23 11:09:51;;;;;;;7.22;3.15;;;22.90;39.10;;;;;;6230609;28;80382;-65
2021/04/23 11:12:52;;;;;;;5.70;3.00;;;23.00;39.00;;;;;;6215539;28;81872;-65
2021/04/23 11:15:52;;;;;;;6.85;3.47;;;23.00;39.00;;;;;;6227691;28;82937;-64
2021/04/23 11:18:53;;;;;;;4.50;3.00;;;22.90;39.20;;;;;;6224330;28;82661;-64
2021/04/23 11:21:54;;;;;;;3.85;2.70;;;23.00;39.50;;;;;;6230764;28;80531;-65
2021/04/23 11:24:54;;;;;;;4.47;2.95;;;23.00;39.60;;;;;;6229073;28;80377;-64
2021/04/23 11:27:55;;;;;;;6.03;3.10;;;23.00;40.00;;;;;;6232047;28;80292;-64
2021/04/23 11:30:57;;;;;;;6.15;3.05;;;23.00;39.80;;;;;;6227988;28;95384;-64
2021/04/23 11:33:59;;;;;;;3.67;2.70;;;22.90;40.10;;;;;;6227811;28;80244;-64
2021/04/23 11:37:00;;;;;;;5.20;3.10;;;22.90;39.80;;;;;;6229616;28;80751;-64
2021/04/23 11:40:00;;;;;;;3.85;2.65;;;22.90;40.10;;;;;;6211208;28;80870;-63
2021/04/23 11:43:05;;;;;;;5.07;2.88;;;22.90;40.50;;;;;;6224054;28;80763;-63
2021/04/23 11:46:05;;;;;;;3.85;2.90;;;22.90;40.10;;;;;;6229195;28;81012;-63
2021/04/23 11:49:06;;;;;;;8.00;2.90;;;22.90;40.40;;;;;;6207785;28;83617;-62
2021/04/23 11:52:06;;;;;;;2.67;2.45;;;22.90;40.30;;;;;;6224762;28;80705;-63
2021/04/23 11:55:07;;;;;;;4.35;2.83;;;22.90;41.10;;;;;;6225893;28;80200;-62
2021/04/23 11:58:07;;;;;;;4.55;2.67;;;22.90;40.90;;;;;;6223187;28;80382;-62
2021/04/23 12:01:08;;;;;;;4.85;2.78;;;22.90;40.60;;;;;;6228103;28;82238;-63
2021/04/23 12:04:08;;;;;;;7.28;2.42;;;22.90;41.20;;;;;;6227638;28;81494;-63
2021/04/23 12:07:09;;;;;;;6.05;2.90;;;22.90;40.80;;;;;;6230538;28;80563;-63
2021/04/23 12:10:10;;;;;;;4.32;3.00;;;22.90;40.80;;;;;;6223963;28;81311;-64
2021/04/23 12:13:10;;;;;;;4.55;3.00;;;22.90;40.50;;;;;;6223043;28;80787;-64
2021/04/23 12:16:11;;;;;;;6.28;3.35;;;22.90;40.20;;;;;;6213207;28;82014;-65
2021/04/23 12:19:12;;;;;;;4.93;2.67;;;22.80;39.80;;;;;;6231929;28;80454;-66
2021/04/23 12:22:14;;;;;;;3.72;2.53;;;22.80;39.60;;;;;;6236734;28;80545;-65
2021/04/23 12:25:15;;;;;;;5.93;2.90;;;22.80;39.00;;;;;;6217340;28;81112;-65
2021/04/23 12:28:16;;;;;;;5.63;3.10;;;22.80;39.10;;;;;;6191550;28;80452;-62
2021/04/23 12:31:17;;;;;;;6.20;3.38;;;22.80;39.30;;;;;;6182528;28;80389;-65
2021/04/23 12:34:18;;;;;;;8.73;3.15;;;22.80;37.90;;;;;;6177553;28;80983;-64
2021/04/23 12:37:18;;;;;;;4.22;2.22;;;22.80;38.00;;;;;;6181180;28;83155;-64
2021/04/23 12:40:19;;;;;;;6.82;2.75;;;22.80;39.30;;;;;;6178829;28;81806;-63
2021/04/23 12:43:19;;;;;;;4.82;2.30;;;22.80;39.10;;;;;;6183717;28;80819;-63
2021/04/23 12:46:20;;;;;;;4.28;2.67;;;22.80;38.00;;;;;;6180207;28;80721;-64
2021/04/23 12:49:20;;;;;;;4.82;2.70;;;22.80;37.80;;;;;;6182577;28;80784;-64
2021/04/23 12:52:21;;;;;;;3.25;2.67;;;22.80;37.90;;;;;;6178919;28;81671;-63
2021/04/23 12:55:21;;;;;;;2.63;2.42;;;22.80;37.50;;;;;;6171085;28;80988;-63
2021/04/23 12:58:22;;;;;;;4.03;2.40;;;22.80;37.70;;;;;;6180501;28;83336;-63
2021/04/23 13:01:22;;;;;;;3.67;2.70;;;22.80;38.00;;;;;;6182320;28;80748;-64
2021/04/23 13:04:23;;;;;;;3.72;2.42;;;22.80;37.50;;;;;;6182574;28;81511;-63
2021/04/23 13:07:23;;;;;;;3.33;2.65;;;22.80;37.30;;;;;;6182633;28;80769;-63
2021/04/23 13:10:24;;;;;;;4.00;2.72;;;22.90;37.20;;;;;;6185745;28;80667;-63
2021/04/23 13:13:24;;;;;;;2.90;2.40;;;22.80;37.30;;;;;;6183533;28;83438;-64
2021/04/23 13:16:25;;;;;;;5.28;2.72;;;22.80;37.80;;;;;;6186527;28;80467;-64
2021/04/23 13:19:25;;;;;;;4.60;3.28;;;22.80;37.20;;;;;;6187731;28;80153;-63
2021/04/23 13:22:26;;;;;;;5.20;2.65;;;22.80;37.30;;;;;;6180569;28;80463;-64
2021/04/23 13:25:27;;;;;;;4.53;2.60;;;22.80;37.00;;;;;;6184140;28;80715;-61
2021/04/23 13:28:27;;;;;;;5.45;2.38;;;22.80;37.20;;;;;;6216552;28;81323;-63
2021/04/23 13:31:28;;;;;;;4.90;2.40;;;22.80;37.20;;;;;;6226409;28;80756;-63
2021/04/23 13:34:28;;;;;;;4.22;2.72;;;22.90;36.70;;;;;;6227276;28;81324;-63
2021/04/23 13:37:29;;;;;;;5.78;2.90;;;22.90;37.00;;;;;;6228065;28;80781;-64
2021/04/23 13:40:29;;;;;;;4.57;2.70;;;22.90;36.70;;;;;;6224900;27;80608;-64
2021/04/23 13:43:30;;;;;;;5.95;3.00;;;22.90;36.70;;;;;;6229224;28;80427;-64
2021/04/23 13:46:31;;;;;;;4.15;3.05;;;23.00;36.80;;;;;;6210184;28;82101;-64
2021/04/23 13:49:34;;;;;;;6.90;2.70;;;23.00;36.50;;;;;;6207473;28;83249;-64
2021/04/23 13:52:35;;;;;;;5.20;2.88;;;23.00;36.90;;;;;;6228840;28;80284;-62
2021/04/23 13:55:35;;;;;;;8.63;3.25;;;23.00;37.10;;;;;;6232263;28;80364;-63
2021/04/23 13:58:36;;;;;;;4.65;3.00;;;23.00;37.00;;;;;;6230787;28;80498;-62
2021/04/23 14:01:36;;;;;;;5.25;2.42;;;23.00;37.00;;;;;;6236230;28;80571;-64
2021/04/23 14:04:37;;;;;;;24.17;3.33;;;23.00;37.20;;;;;;6228648;28;80665;-63
2021/04/23 14:07:37;;;;;;;8.27;3.03;;;23.00;37.10;;;;;;6226459;28;80757;-63
2021/04/23 14:10:38;;;;;;;3.83;2.70;;;22.90;36.90;;;;;;6231418;28;82584;-63
2021/04/23 14:13:38;;;;;;;5.35;2.97;;;22.90;37.10;;;;;;6235256;28;80554;-63
2021/04/23 14:16:39;;;;;;;4.45;2.60;;;22.90;37.00;;;;;;6224985;28;80581;-63
2021/04/23 14:19:39;;;;;;;2.38;2.17;;;22.90;36.90;;;;;;6230497;28;81624;-63
2021/04/23 14:22:40;;;;;;;7.35;2.72;;;22.90;37.40;;;;;;6228410;28;80867;-64
2021/04/23 14:25:41;;;;;;;4.05;2.47;;;22.90;36.50;;;;;;6212564;28;80636;-64
2021/04/23 14:28:41;;;;;;;4.47;2.70;;;22.90;37.10;;;;;;6212176;28;81052;-64
2021/04/23 14:31:42;;;;;;;4.75;2.40;;;22.90;37.00;;;;;;6227570;28;80100;-65
2021/04/23 14:34:42;;;;;;;5.93;2.85;;;22.90;36.70;;;;;;6236248;28;80631;-63
2021/04/23 14:37:43;;;;;;;5.00;2.90;;;22.90;36.80;;;;;;6225443;28;81989;-64
2021/04/23 14:40:43;;;;;;;5.15;3.08;;;22.80;36.80;;;;;;6224724;28;80890;-63
2021/04/23 14:43:44;;;;;;;7.35;2.75;;;22.90;36.70;;;;;;6201539;28;80663;-63
2021/04/23 14:46:45;;;;;;;4.22;3.20;;;22.90;36.60;;;;;;6206043;28;82073;-64
2021/04/23 14:49:45;;;;;;;5.07;3.05;;;22.90;36.60;;;;;;6208328;28;81603;-65
2021/04/23 14:52:46;;;;;;;4.70;2.63;;;22.90;36.80;;;;;;6208924;28;80411;-65
2021/04/23 14:55:46;;;;;;;3.38;2.80;;;22.90;36.70;;;;;;6234227;28;80441;-64
2021/04/23 14:58:47;;;;;;;5.78;2.60;;;22.90;36.20;;;;;;6232951;28;81453;-65
2021/04/23 15:01:47;;;;;;;5.05;2.70;;;22.90;36.10;;;;;;6224917;28;81160;-65
2021/04/23 15:04:48;;;;;;;3.75;3.00;;;22.90;36.10;;;;;;6228047;28;87559;-65
2021/04/23 15:07:48;;;;;;;5.82;2.90;;;22.90;36.20;;;;;;6224057;28;80651;-64
2021/04/23 15:10:50;;;;;;;6.50;3.08;;;22.90;36.40;;;;;;6231353;28;81778;-63
2021/04/23 15:13:50;;;;;;;7.25;3.60;;;22.90;36.80;;;;;;6222100;27;80859;-64
2021/04/23 15:16:51;;;;;;;5.18;2.53;;;22.90;37.10;;;;;;6231608;28;81439;-63
2021/04/23 15:19:51;;;;;;;10.98;3.78;;;22.90;37.00;;;;;;6226492;28;81688;-63
2021/04/23 15:22:52;;;;;;;6.18;3.72;;;22.90;37.10;;;;;;6225471;28;80638;-63
2021/04/23 15:25:53;;;;;;;8.07;3.35;;;22.90;37.60;;;;;;6229304;28;80892;-64
2021/04/23 15:28:54;;;;;;;5.93;3.08;;;22.90;37.50;;;;;;6225345;28;80337;-65
2021/04/23 15:31:54;;;;;;;5.90;3.22;;;22.90;37.70;;;;;;6208401;28;83550;-65